sensor_id;sensor_type;location;lat;lon;timestamp;temperature;humidity
68648;SHT31;55632;51.962;16.116;2023-04-03T00:02:40;0.63;71.34
68648;SHT31;55632;51.962;16.116;2023-04-03T00:07:41;0.57;71.77
68648;SHT31;55632;51.962;16.116;2023-04-03T00:12:45;0.55;72.14
68648;SHT31;55632;51.962;16.116;2023-04-03T00:17:49;0.50;72.45
68648;SHT31;55632;51.962;16.116;2023-04-03T00:22:49;0.48;72.68
68648;SHT31;55632;51.962;16.116;2023-04-03T00:27:50;0.46;72.86
68648;SHT31;55632;51.962;16.116;2023-04-03T00:32:52;0.42;72.94
68648;SHT31;55632;51.962;16.116;2023-04-03T00:37:54;0.41;73.20
68648;SHT31;55632;51.962;16.116;2023-04-03T00:43:05;0.39;73.42
68648;SHT31;55632;51.962;16.116;2023-04-03T00:48:34;0.35;73.67
68648;SHT31;55632;51.962;16.116;2023-04-03T00:53:58;0.33;73.85
68648;SHT31;55632;51.962;16.116;2023-04-03T00:59:04;0.32;74.02
68648;SHT31;55632;51.962;16.116;2023-04-03T01:09:30;0.28;74.36
68648;SHT31;55632;51.962;16.116;2023-04-03T01:14:31;0.28;74.53
68648;SHT31;55632;51.962;16.116;2023-04-03T01:19:34;0.22;74.58
68648;SHT31;55632;51.962;16.116;2023-04-03T01:24:44;0.19;74.86
68648;SHT31;55632;51.962;16.116;2023-04-03T01:29:48;0.17;74.91
68648;SHT31;55632;51.962;16.116;2023-04-03T01:34:49;0.11;75.24
68648;SHT31;55632;51.962;16.116;2023-04-03T01:39:53;0.08;75.23
68648;SHT31;55632;51.962;16.116;2023-04-03T01:44:54;0.02;75.46
68648;SHT31;55632;51.962;16.116;2023-04-03T01:49:55;0.01;75.54
68648;SHT31;55632;51.962;16.116;2023-04-03T01:54:59;-0.03;75.75
68648;SHT31;55632;51.962;16.116;2023-04-03T02:00:03;-0.06;75.88
68648;SHT31;55632;51.962;16.116;2023-04-03T02:05:13;-0.09;76.03
68648;SHT31;55632;51.962;16.116;2023-04-03T02:10:14;-0.16;76.19
68648;SHT31;55632;51.962;16.116;2023-04-03T02:15:17;-0.20;76.41
68648;SHT31;55632;51.962;16.116;2023-04-03T02:20:19;-0.24;76.50
68648;SHT31;55632;51.962;16.116;2023-04-03T02:25:19;-0.28;76.67
68648;SHT31;55632;51.962;16.116;2023-04-03T02:30:20;-0.31;76.78
68648;SHT31;55632;51.962;16.116;2023-04-03T02:35:23;-0.35;76.87
68648;SHT31;55632;51.962;16.116;2023-04-03T02:40:28;-0.37;76.97
68648;SHT31;55632;51.962;16.116;2023-04-03T02:45:29;-0.42;77.19
68648;SHT31;55632;51.962;16.116;2023-04-03T02:50:30;-0.45;77.24
68648;SHT31;55632;51.962;16.116;2023-04-03T02:55:31;-0.50;77.47
68648;SHT31;55632;51.962;16.116;2023-04-03T03:00:32;-0.54;77.69
68648;SHT31;55632;51.962;16.116;2023-04-03T03:05:33;-0.52;77.77
68648;SHT31;55632;51.962;16.116;2023-04-03T03:10:34;-0.54;78.05
68648;SHT31;55632;51.962;16.116;2023-04-03T03:15:37;-0.57;78.13
68648;SHT31;55632;51.962;16.116;2023-04-03T03:20:40;-0.61;78.13
68648;SHT31;55632;51.962;16.116;2023-04-03T03:25:41;-0.64;78.32
68648;SHT31;55632;51.962;16.116;2023-04-03T03:30:45;-0.68;78.39
68648;SHT31;55632;51.962;16.116;2023-04-03T03:35:46;-0.70;78.55
68648;SHT31;55632;51.962;16.116;2023-04-03T03:40:48;-0.75;78.75
68648;SHT31;55632;51.962;16.116;2023-04-03T03:45:54;-0.82;78.84
68648;SHT31;55632;51.962;16.116;2023-04-03T03:50:56;-0.82;79.05
68648;SHT31;55632;51.962;16.116;2023-04-03T03:56:01;-0.85;79.32
68648;SHT31;55632;51.962;16.116;2023-04-03T04:01:06;-0.89;79.45
68648;SHT31;55632;51.962;16.116;2023-04-03T04:06:10;-0.87;79.75
68648;SHT31;55632;51.962;16.116;2023-04-03T04:11:11;-0.89;79.86
68648;SHT31;55632;51.962;16.116;2023-04-03T04:16:16;-0.87;79.92
68648;SHT31;55632;51.962;16.116;2023-04-03T04:21:17;-0.87;79.99
68648;SHT31;55632;51.962;16.116;2023-04-03T04:26:22;-0.90;80.27
68648;SHT31;55632;51.962;16.116;2023-04-03T04:31:23;-0.90;80.28
68648;SHT31;55632;51.962;16.116;2023-04-03T04:36:24;-0.90;80.26
68648;SHT31;55632;51.962;16.116;2023-04-03T04:41:28;-0.90;80.43
68648;SHT31;55632;51.962;16.116;2023-04-03T04:46:29;-0.83;80.46
68648;SHT31;55632;51.962;16.116;2023-04-03T04:51:33;-0.69;80.53
68648;SHT31;55632;51.962;16.116;2023-04-03T04:56:34;-0.51;80.37
68648;SHT31;55632;51.962;16.116;2023-04-03T05:01:35;-0.35;80.24
68648;SHT31;55632;51.962;16.116;2023-04-03T05:06:41;-0.07;80.03
68648;SHT31;55632;51.962;16.116;2023-04-03T05:11:48;0.18;79.52
68648;SHT31;55632;51.962;16.116;2023-04-03T05:16:51;0.39;79.10
68648;SHT31;55632;51.962;16.116;2023-04-03T05:21:57;0.48;78.39
68648;SHT31;55632;51.962;16.116;2023-04-03T05:26:58;0.53;78.06
68648;SHT31;55632;51.962;16.116;2023-04-03T05:32:00;0.66;77.82
68648;SHT31;55632;51.962;16.116;2023-04-03T05:37:01;0.76;77.32
68648;SHT31;55632;51.962;16.116;2023-04-03T05:42:04;0.85;77.12
68648;SHT31;55632;51.962;16.116;2023-04-03T05:47:05;0.98;76.59
68648;SHT31;55632;51.962;16.116;2023-04-03T05:52:11;1.07;76.24
68648;SHT31;55632;51.962;16.116;2023-04-03T05:57:18;1.12;76.01
68648;SHT31;55632;51.962;16.116;2023-04-03T06:02:21;1.24;75.85
68648;SHT31;55632;51.962;16.116;2023-04-03T06:07:24;1.33;75.65
68648;SHT31;55632;51.962;16.116;2023-04-03T06:12:28;1.47;75.45
68648;SHT31;55632;51.962;16.116;2023-04-03T06:17:32;1.57;74.97
68648;SHT31;55632;51.962;16.116;2023-04-03T06:22:33;1.67;74.74
68648;SHT31;55632;51.962;16.116;2023-04-03T06:27:35;1.81;74.33
68648;SHT31;55632;51.962;16.116;2023-04-03T06:32:36;1.91;74.00
68648;SHT31;55632;51.962;16.116;2023-04-03T06:37:36;2.06;74.09
68648;SHT31;55632;51.962;16.116;2023-04-03T06:42:37;2.22;73.54
68648;SHT31;55632;51.962;16.116;2023-04-03T06:47:43;2.33;72.71
68648;SHT31;55632;51.962;16.116;2023-04-03T06:52:45;2.44;72.93
68648;SHT31;55632;51.962;16.116;2023-04-03T06:57:46;2.60;71.97
68648;SHT31;55632;51.962;16.116;2023-04-03T07:02:47;2.77;71.89
68648;SHT31;55632;51.962;16.116;2023-04-03T07:07:48;2.85;71.72
68648;SHT31;55632;51.962;16.116;2023-04-03T07:12:50;3.02;71.50
68648;SHT31;55632;51.962;16.116;2023-04-03T07:17:51;3.20;70.98
68648;SHT31;55632;51.962;16.116;2023-04-03T07:22:53;3.30;69.98
68648;SHT31;55632;51.962;16.116;2023-04-03T07:27:54;3.38;69.42
68648;SHT31;55632;51.962;16.116;2023-04-03T07:32:54;3.51;69.35
68648;SHT31;55632;51.962;16.116;2023-04-03T07:37:55;3.64;68.14
68648;SHT31;55632;51.962;16.116;2023-04-03T07:42:56;3.78;67.26
68648;SHT31;55632;51.962;16.116;2023-04-03T07:47:57;3.90;66.09
68648;SHT31;55632;51.962;16.116;2023-04-03T07:52:58;4.02;65.89
68648;SHT31;55632;51.962;16.116;2023-04-03T07:57:59;4.16;65.20
68648;SHT31;55632;51.962;16.116;2023-04-03T08:03:00;4.16;62.62
68648;SHT31;55632;51.962;16.116;2023-04-03T08:08:00;4.18;62.60
68648;SHT31;55632;51.962;16.116;2023-04-03T08:13:01;4.27;61.32
68648;SHT31;55632;51.962;16.116;2023-04-03T08:18:02;4.29;61.27
68648;SHT31;55632;51.962;16.116;2023-04-03T08:23:03;4.47;59.70
68648;SHT31;55632;51.962;16.116;2023-04-03T08:28:04;4.48;58.85
68648;SHT31;55632;51.962;16.116;2023-04-03T08:33:05;4.66;59.57
68648;SHT31;55632;51.962;16.116;2023-04-03T08:38:07;4.76;58.13
68648;SHT31;55632;51.962;16.116;2023-04-03T08:43:28;4.94;56.84
68648;SHT31;55632;51.962;16.116;2023-04-03T08:48:41;5.11;55.33
68648;SHT31;55632;51.962;16.116;2023-04-03T08:53:50;5.13;53.75
68648;SHT31;55632;51.962;16.116;2023-04-03T08:59:04;5.14;52.82
68648;SHT31;55632;51.962;16.116;2023-04-03T09:04:11;5.18;53.78
68648;SHT31;55632;51.962;16.116;2023-04-03T09:09:39;5.21;52.98
68648;SHT31;55632;51.962;16.116;2023-04-03T09:19:48;4.94;53.13
68648;SHT31;55632;51.962;16.116;2023-04-03T09:25:14;5.06;52.98
68648;SHT31;55632;51.962;16.116;2023-04-03T09:30:20;5.17;51.13
68648;SHT31;55632;51.962;16.116;2023-04-03T09:35:30;5.31;52.52
68648;SHT31;55632;51.962;16.116;2023-04-03T09:40:35;5.54;52.14
68648;SHT31;55632;51.962;16.116;2023-04-03T09:45:36;5.77;51.65
68648;SHT31;55632;51.962;16.116;2023-04-03T09:50:37;5.98;50.76
68648;SHT31;55632;51.962;16.116;2023-04-03T09:55:43;5.96;50.08
68648;SHT31;55632;51.962;16.116;2023-04-03T10:00:54;5.89;48.50
68648;SHT31;55632;51.962;16.116;2023-04-03T10:05:56;6.03;48.86
68648;SHT31;55632;51.962;16.116;2023-04-03T10:11:08;5.94;48.10
68648;SHT31;55632;51.962;16.116;2023-04-03T10:16:17;5.91;49.26
68648;SHT31;55632;51.962;16.116;2023-04-03T10:21:45;6.11;49.52
68648;SHT31;55632;51.962;16.116;2023-04-03T10:26:56;6.21;48.84
68648;SHT31;55632;51.962;16.116;2023-04-03T10:37:38;5.90;47.55
68648;SHT31;55632;51.962;16.116;2023-04-03T10:48:33;6.17;46.98
68648;SHT31;55632;51.962;16.116;2023-04-03T10:58:48;6.34;46.07
68648;SHT31;55632;51.962;16.116;2023-04-03T11:03:54;6.39;46.72
68648;SHT31;55632;51.962;16.116;2023-04-03T11:09:02;6.31;46.49
68648;SHT31;55632;51.962;16.116;2023-04-03T11:14:30;6.17;47.78
68648;SHT31;55632;51.962;16.116;2023-04-03T11:30:17;5.98;47.48
68648;SHT31;55632;51.962;16.116;2023-04-03T11:35:21;5.90;47.61
68648;SHT31;55632;51.962;16.116;2023-04-03T11:40:26;6.10;48.47
68648;SHT31;55632;51.962;16.116;2023-04-03T11:46:03;6.14;47.39
68648;SHT31;55632;51.962;16.116;2023-04-03T12:07:01;6.39;46.48
68648;SHT31;55632;51.962;16.116;2023-04-03T12:12:30;6.31;44.56
68648;SHT31;55632;51.962;16.116;2023-04-03T12:17:33;6.03;45.45
68648;SHT31;55632;51.962;16.116;2023-04-03T12:22:33;6.04;46.58
68648;SHT31;55632;51.962;16.116;2023-04-03T12:27:40;6.18;46.89
68648;SHT31;55632;51.962;16.116;2023-04-03T12:43:18;6.00;46.90
68648;SHT31;55632;51.962;16.116;2023-04-03T12:48:27;5.94;47.56
68648;SHT31;55632;51.962;16.116;2023-04-03T12:53:35;6.15;47.20
68648;SHT31;55632;51.962;16.116;2023-04-03T12:58:37;6.20;46.24
68648;SHT31;55632;51.962;16.116;2023-04-03T13:03:42;6.32;46.52
68648;SHT31;55632;51.962;16.116;2023-04-03T13:08:56;6.43;45.79
68648;SHT31;55632;51.962;16.116;2023-04-03T13:14:13;6.49;45.73
68648;SHT31;55632;51.962;16.116;2023-04-03T13:19:18;6.50;45.84
68648;SHT31;55632;51.962;16.116;2023-04-03T13:24:21;6.46;46.56
68648;SHT31;55632;51.962;16.116;2023-04-03T13:29:32;6.26;46.34
68648;SHT31;55632;51.962;16.116;2023-04-03T13:34:51;6.18;45.95
68648;SHT31;55632;51.962;16.116;2023-04-03T13:45:18;6.24;45.37
68648;SHT31;55632;51.962;16.116;2023-04-03T13:50:21;6.38;45.92
68648;SHT31;55632;51.962;16.116;2023-04-03T13:55:27;6.54;45.71
68648;SHT31;55632;51.962;16.116;2023-04-03T14:05:51;6.70;45.53
68648;SHT31;55632;51.962;16.116;2023-04-03T14:10:52;6.54;45.10
68648;SHT31;55632;51.962;16.116;2023-04-03T14:15:52;6.38;46.22
68648;SHT31;55632;51.962;16.116;2023-04-03T14:20:53;6.50;46.23
68648;SHT31;55632;51.962;16.116;2023-04-03T14:25:54;6.63;44.83
68648;SHT31;55632;51.962;16.116;2023-04-03T14:30:55;6.75;44.55
68648;SHT31;55632;51.962;16.116;2023-04-03T14:35:56;6.62;44.64
68648;SHT31;55632;51.962;16.116;2023-04-03T14:40:58;6.56;44.22
68648;SHT31;55632;51.962;16.116;2023-04-03T14:45:59;6.59;44.21
68648;SHT31;55632;51.962;16.116;2023-04-03T14:51:00;6.67;44.63
68648;SHT31;55632;51.962;16.116;2023-04-03T14:56:01;6.70;43.23
68648;SHT31;55632;51.962;16.116;2023-04-03T15:01:02;6.77;42.97
68648;SHT31;55632;51.962;16.116;2023-04-03T15:06:03;6.80;43.79
68648;SHT31;55632;51.962;16.116;2023-04-03T15:11:04;6.62;43.91
68648;SHT31;55632;51.962;16.116;2023-04-03T15:16:16;6.56;44.69
68648;SHT31;55632;51.962;16.116;2023-04-03T15:21:17;6.53;45.26
68648;SHT31;55632;51.962;16.116;2023-04-03T15:26:18;6.57;45.35
68648;SHT31;55632;51.962;16.116;2023-04-03T15:31:19;6.56;44.86
68648;SHT31;55632;51.962;16.116;2023-04-03T15:36:20;6.49;45.05
68648;SHT31;55632;51.962;16.116;2023-04-03T15:41:22;6.39;45.02
68648;SHT31;55632;51.962;16.116;2023-04-03T15:46:25;6.34;45.52
68648;SHT31;55632;51.962;16.116;2023-04-03T15:51:27;6.26;46.27
68648;SHT31;55632;51.962;16.116;2023-04-03T15:56:28;6.32;46.35
68648;SHT31;55632;51.962;16.116;2023-04-03T16:01:29;6.26;46.28
68648;SHT31;55632;51.962;16.116;2023-04-03T16:06:29;6.20;46.19
68648;SHT31;55632;51.962;16.116;2023-04-03T16:11:36;6.08;46.09
68648;SHT31;55632;51.962;16.116;2023-04-03T16:16:39;6.01;47.26
68648;SHT31;55632;51.962;16.116;2023-04-03T16:21:48;5.97;48.06
68648;SHT31;55632;51.962;16.116;2023-04-03T16:26:49;5.90;48.04
68648;SHT31;55632;51.962;16.116;2023-04-03T16:31:50;5.81;47.51
68648;SHT31;55632;51.962;16.116;2023-04-03T16:36:52;5.69;47.74
68648;SHT31;55632;51.962;16.116;2023-04-03T16:41:53;5.55;48.03
68648;SHT31;55632;51.962;16.116;2023-04-03T16:46:56;5.42;48.40
68648;SHT31;55632;51.962;16.116;2023-04-03T16:51:58;5.38;48.74
68648;SHT31;55632;51.962;16.116;2023-04-03T16:56:59;5.28;48.71
68648;SHT31;55632;51.962;16.116;2023-04-03T17:02:00;5.27;49.08
68648;SHT31;55632;51.962;16.116;2023-04-03T17:07:03;5.21;49.27
68648;SHT31;55632;51.962;16.116;2023-04-03T17:12:06;5.14;49.45
68648;SHT31;55632;51.962;16.116;2023-04-03T17:17:07;5.07;49.86
68648;SHT31;55632;51.962;16.116;2023-04-03T17:22:09;5.00;50.01
68648;SHT31;55632;51.962;16.116;2023-04-03T17:27:10;4.90;49.93
68648;SHT31;55632;51.962;16.116;2023-04-03T17:32:11;4.82;50.03
68648;SHT31;55632;51.962;16.116;2023-04-03T17:37:12;4.77;50.44
68648;SHT31;55632;51.962;16.116;2023-04-03T17:42:14;4.65;50.82
68648;SHT31;55632;51.962;16.116;2023-04-03T17:47:16;4.57;51.13
68648;SHT31;55632;51.962;16.116;2023-04-03T17:52:17;4.45;51.56
68648;SHT31;55632;51.962;16.116;2023-04-03T17:57:19;4.36;52.24
68648;SHT31;55632;51.962;16.116;2023-04-03T18:02:20;4.24;52.94
68648;SHT31;55632;51.962;16.116;2023-04-03T18:07:23;4.18;53.35
68648;SHT31;55632;51.962;16.116;2023-04-03T18:12:25;4.10;53.79
68648;SHT31;55632;51.962;16.116;2023-04-03T18:17:25;4.06;54.07
68648;SHT31;55632;51.962;16.116;2023-04-03T18:22:27;4.06;54.50
68648;SHT31;55632;51.962;16.116;2023-04-03T18:27:29;4.02;54.74
68648;SHT31;55632;51.962;16.116;2023-04-03T18:32:29;4.00;54.91
68648;SHT31;55632;51.962;16.116;2023-04-03T18:37:30;4.00;54.91
68648;SHT31;55632;51.962;16.116;2023-04-03T18:42:31;3.97;55.19
68648;SHT31;55632;51.962;16.116;2023-04-03T18:47:31;3.92;55.19
68648;SHT31;55632;51.962;16.116;2023-04-03T18:52:33;3.90;55.37
68648;SHT31;55632;51.962;16.116;2023-04-03T18:57:34;3.86;55.14
68648;SHT31;55632;51.962;16.116;2023-04-03T19:02:36;3.86;55.17
68648;SHT31;55632;51.962;16.116;2023-04-03T19:07:37;3.83;55.17
68648;SHT31;55632;51.962;16.116;2023-04-03T19:12:37;3.82;54.89
68648;SHT31;55632;51.962;16.116;2023-04-03T19:17:39;3.79;54.86
68648;SHT31;55632;51.962;16.116;2023-04-03T19:22:40;3.77;54.71
68648;SHT31;55632;51.962;16.116;2023-04-03T19:27:41;3.75;54.43
68648;SHT31;55632;51.962;16.116;2023-04-03T19:32:42;3.77;54.60
68648;SHT31;55632;51.962;16.116;2023-04-03T19:37:44;3.75;54.82
68648;SHT31;55632;51.962;16.116;2023-04-03T19:42:51;3.74;54.84
68648;SHT31;55632;51.962;16.116;2023-04-03T19:47:52;3.72;54.98
68648;SHT31;55632;51.962;16.116;2023-04-03T19:52:52;3.71;54.80
68648;SHT31;55632;51.962;16.116;2023-04-03T19:57:53;3.71;54.87
68648;SHT31;55632;51.962;16.116;2023-04-03T20:02:54;3.67;54.97
68648;SHT31;55632;51.962;16.116;2023-04-03T20:07:56;3.68;55.02
68648;SHT31;55632;51.962;16.116;2023-04-03T20:12:56;3.64;55.21
68648;SHT31;55632;51.962;16.116;2023-04-03T20:17:58;3.61;55.40
68648;SHT31;55632;51.962;16.116;2023-04-03T20:22:59;3.61;55.74
68648;SHT31;55632;51.962;16.116;2023-04-03T20:28:00;3.54;55.91
68648;SHT31;55632;51.962;16.116;2023-04-03T20:33:05;3.53;56.06
68648;SHT31;55632;51.962;16.116;2023-04-03T20:38:06;3.55;56.23
68648;SHT31;55632;51.962;16.116;2023-04-03T20:43:10;3.47;56.33
68648;SHT31;55632;51.962;16.116;2023-04-03T20:48:12;3.45;56.65
68648;SHT31;55632;51.962;16.116;2023-04-03T20:53:18;3.41;57.02
68648;SHT31;55632;51.962;16.116;2023-04-03T20:58:23;3.37;57.24
68648;SHT31;55632;51.962;16.116;2023-04-03T21:03:26;3.38;57.44
68648;SHT31;55632;51.962;16.116;2023-04-03T21:19:48;3.31;58.46
68648;SHT31;55632;51.962;16.116;2023-04-03T21:24:50;3.30;58.83
68648;SHT31;55632;51.962;16.116;2023-04-03T21:29:51;3.27;59.27
68648;SHT31;55632;51.962;16.116;2023-04-03T21:34:52;3.27;59.75
68648;SHT31;55632;51.962;16.116;2023-04-03T21:39:56;3.24;59.77
68648;SHT31;55632;51.962;16.116;2023-04-03T21:44:59;3.22;60.23
68648;SHT31;55632;51.962;16.116;2023-04-03T21:50:00;3.22;60.15
68648;SHT31;55632;51.962;16.116;2023-04-03T21:55:01;3.17;60.14
68648;SHT31;55632;51.962;16.116;2023-04-03T22:00:05;3.13;60.18
68648;SHT31;55632;51.962;16.116;2023-04-03T22:05:10;3.10;60.18
68648;SHT31;55632;51.962;16.116;2023-04-03T22:10:13;3.05;60.52
68648;SHT31;55632;51.962;16.116;2023-04-03T22:15:15;3.02;60.82
68648;SHT31;55632;51.962;16.116;2023-04-03T22:20:17;2.98;61.09
68648;SHT31;55632;51.962;16.116;2023-04-03T22:25:18;2.95;61.30
68648;SHT31;55632;51.962;16.116;2023-04-03T22:30:21;2.88;61.57
68648;SHT31;55632;51.962;16.116;2023-04-03T22:35:22;2.81;61.76
68648;SHT31;55632;51.962;16.116;2023-04-03T22:40:23;2.75;62.01
68648;SHT31;55632;51.962;16.116;2023-04-03T22:45:27;2.62;62.33
68648;SHT31;55632;51.962;16.116;2023-04-03T22:50:29;2.58;62.51
68648;SHT31;55632;51.962;16.116;2023-04-03T22:55:31;2.47;63.18
68648;SHT31;55632;51.962;16.116;2023-04-03T23:00:32;2.34;63.78
68648;SHT31;55632;51.962;16.116;2023-04-03T23:05:33;2.22;64.22
68648;SHT31;55632;51.962;16.116;2023-04-03T23:10:37;2.13;64.02
68648;SHT31;55632;51.962;16.116;2023-04-03T23:15:43;2.06;64.27
68648;SHT31;55632;51.962;16.116;2023-04-03T23:20:47;2.02;64.53
68648;SHT31;55632;51.962;16.116;2023-04-03T23:25:52;1.97;64.66
68648;SHT31;55632;51.962;16.116;2023-04-03T23:30:57;1.89;64.79
68648;SHT31;55632;51.962;16.116;2023-04-03T23:36:05;1.85;64.97
68648;SHT31;55632;51.962;16.116;2023-04-03T23:41:10;1.77;65.22
68648;SHT31;55632;51.962;16.116;2023-04-03T23:46:10;1.66;65.60
68648;SHT31;55632;51.962;16.116;2023-04-03T23:51:14;1.63;65.49
68648;SHT31;55632;51.962;16.116;2023-04-03T23:56:18;1.57;65.55
